Arica, Chile

4:28 AM CLT on August 28, 2015 (GMT -0300)
Chacalluta International | | Change Station
CLOSE
Current Station
Airport
Location: Arica,
Elevation: 190 ft
Nearby Weather Stations

Elev 190 ft 18.35 °S, 70.34 °W | Updated 28 minutes ago

Overcast
Overcast
61 °F
Feels Like 61 °F
N
0
Wind Variable Wind from North

Today
High -- | Low -- °F
--% Chance of Precip.
Yesterday
High -- | Low -- °F
Precip. -- in
7:52 AM 7:33 PM
Waxing Gibbous, 97% visible
Pressure 30.01 in
Visibility 6.2 miles
Clouds Overcast 2300 ft
Dew Point 55 °F
Humidity 82%
Rainfall 0.00 in
Snow Depth Not available.
UV 0 out of 12
Pollen Not available.
Air Quality Not available.
Flu Activity Not available.
METAR SCAR 280700Z 00000KT 9999 OVC023 16/13 Q1016
Pressure 30.01 in
Visibility 6.2 miles
Clouds Overcast 2300 ft
Dew Point 55 °F
Humidity 82%
Rainfall 0.00 in
Snow Depth Not available.
UV 0 out of 12
Pollen Not available.
Air Quality Not available.
Flu Activity Not available.
METAR SCAR 280700Z 00000KT 9999 OVC023 16/13 Q1016

10-Day Weather Forecast

×

Almanac

Astronomy

Aug. 28, 2015 Rise Set
Actual Time
Civil Twilight
Nautical Twilight
Astronomical Twilight
Moon
Length of Visible Light
Length of Day
Tomorrow will be .
, % of the Moon is Illuminated

Today's Extremes

Country Highs Country Lows

Community

WunderPhotos

Upload Photos

1,850,344 photos uploaded!

WunderBlogs® & News

Nearby

Air Quality

  Air Quality AQ Index Pollutant
Not available.

Snow Depth

Station Depth Elevation

Earthquake Activity

City Distance Mag. Time & Date
Minimum magnitude displayed is 2.5.

Coastal Water Temperatures

Place Temperature

Stations

Nearby Weather Stations

Station Location Temp. Windchill Dew Point Humidity Wind Precip. Elev Updated Type